Huvudsida
METAR-TAF:

METAR-TAF

Flygplatser :

Air Force Base Hoedspruit - Eastgate Airport

Hoedspruit, Sydafrika

latitud: 24-21-17S, longitud: 31-03-01E, höjd: 531 m

Aktuellt väderrapport

Denna rapport gjordes för 26 minuter sedan, klockan 21:00 UTC
Vind 5 kt från syd/sydost
Temperatur 27°C
Fuktighet 74%
Tryck 1014 hPa

METAR: FAHS 222100Z AUTO 15005KT //// // ////// 27/22 Q1014

Tid: 23:26 (21:26 UTC)

Väderprognos

Denna rapport gjordes för 12 timmar och 26 minuter sedan, klockan 09:00 UTC
Prognos gäller från 22 kl. 10 UTC till 22 kl. 18 UTC
Vind 7 kt från syd/sydost
Sikt 10 km eller mer
Brutna moln på en höjd av 2500 ft
Sannolikhet 30% :
Temporärt
från 22 kl. 15 UTC till 22 kl. 18 UTC
Få moln på en höjd av 4500 ft, Cumulonimbus.
åska, lätt regn,

TAF: FAHS 220900Z 2210/2218 15007KT 9999 BKN025 TX35/2213Z TN27/2218Z PROB30 TEMPO 2215/2218 -TSRA FEW045CB

Aktuella väderrapporter och prognoser från 4000 flygplatser (METAR- och TAF-rapporter).

De tillgängliga stationerna syns som gula och röda prickar på kartan.

För musen över prickarna för att se namnen på stationerna.

Klicka sedan för att få väderrapporter och prognoser.

För att ändra kartan: Klicka på de gröna knapparna med ett svart kors på för att zooma in; den gröna knappen med ett streck på för att zooma ut; eller på de gröna pilarna för angränsande kartor.


METAR-TAF: